Las Rozas de Madrid, Spain
Current Conditions -  °F | °C
As of 4:00 PM on Thursday 23 Oct 2014 (Local Time) from LEVS Reporting Station
Clear Clear  
Wind Chill: 77°   Ceiling: Unl
Heat Index: 77°   Visibility: 6mi
Dew Point: 34°   Wind: 2mph
Humidity: 21%   Direction: NA
Pressure: 30.21"   Gusts: NA
Location:  40.49°N, 3.87°W
Report Text: LEVS 231400Z VRB02KT CAVOK 25/01 Q1023
Loading
Personal Weather Stations






























Interactive Weather Map
Tropical Storm Tracking
New forecast layout! Learn more

10-Day Weather Forecast

Advertisements
Track Severe Weather on mobile